Oakwood, Iowa
Current Conditions -  °F | °C
As of 9:15 PM on Sunday 21 Dec 2014 (Local Time) from KCCY Reporting Station
Haze Haze  
Wind Chill: 29°   Ceiling: 600
Heat Index: 37°   Visibility: 3mi
Dew Point: 37°   Wind: 15mph
Humidity: 100%   Direction: 160°SSE
Pressure: 29.79"   Gusts: NA
Location:  42.9618°N, 92.9184°W
Report Text: KCCY 220315Z AUTO 16013KT 3SM BR OVC006 03/03 A2979 RMK AO2
Loading
Personal Weather Stations






























Interactive Weather Map New forecast layout! Learn more

10-Day Weather Forecast

Advertisements
Track Severe Weather on mobile